sensor_id;sensor_type;location;lat;lon;timestamp;temperature;humidity
35796;DHT22;21916;52.428;13.302;2023-06-04T00:00:21;12.80;64.50
35796;DHT22;21916;52.428;13.302;2023-06-04T00:02:47;12.70;64.70
35796;DHT22;21916;52.428;13.302;2023-06-04T00:05:12;12.70;64.80
35796;DHT22;21916;52.428;13.302;2023-06-04T00:07:39;12.60;65.30
35796;DHT22;21916;52.428;13.302;2023-06-04T00:10:05;12.60;65.70
35796;DHT22;21916;52.428;13.302;2023-06-04T00:12:32;12.50;65.30
35796;DHT22;21916;52.428;13.302;2023-06-04T00:14:58;12.50;65.60
35796;DHT22;21916;52.428;13.302;2023-06-04T00:17:24;12.50;66.00
35796;DHT22;21916;52.428;13.302;2023-06-04T00:19:50;12.50;66.20
35796;DHT22;21916;52.428;13.302;2023-06-04T00:22:16;12.50;66.40
35796;DHT22;21916;52.428;13.302;2023-06-04T00:24:42;12.30;66.60
35796;DHT22;21916;52.428;13.302;2023-06-04T00:27:08;12.20;66.90
35796;DHT22;21916;52.428;13.302;2023-06-04T00:29:36;12.20;67.10
35796;DHT22;21916;52.428;13.302;2023-06-04T00:32:02;12.30;66.90
35796;DHT22;21916;52.428;13.302;2023-06-04T00:34:29;12.30;66.80
35796;DHT22;21916;52.428;13.302;2023-06-04T00:36:55;12.30;66.80
35796;DHT22;21916;52.428;13.302;2023-06-04T00:39:21;12.30;66.60
35796;DHT22;21916;52.428;13.302;2023-06-04T00:41:47;12.30;66.60
35796;DHT22;21916;52.428;13.302;2023-06-04T00:44:13;12.30;66.60
35796;DHT22;21916;52.428;13.302;2023-06-04T00:46:39;12.20;66.60
35796;DHT22;21916;52.428;13.302;2023-06-04T00:49:06;12.20;66.80
35796;DHT22;21916;52.428;13.302;2023-06-04T00:51:32;12.10;66.90
35796;DHT22;21916;52.428;13.302;2023-06-04T00:53:59;12.10;67.20
35796;DHT22;21916;52.428;13.302;2023-06-04T00:56:28;12.10;67.70
35796;DHT22;21916;52.428;13.302;2023-06-04T00:58:55;12.00;67.80
35796;DHT22;21916;52.428;13.302;2023-06-04T01:04:16;11.90;68.20
35796;DHT22;21916;52.428;13.302;2023-06-04T01:06:45;11.70;68.90
35796;DHT22;21916;52.428;13.302;2023-06-04T01:09:13;11.80;69.50
35796;DHT22;21916;52.428;13.302;2023-06-04T01:11:39;11.80;69.70
35796;DHT22;21916;52.428;13.302;2023-06-04T01:14:08;11.60;70.00
35796;DHT22;21916;52.428;13.302;2023-06-04T01:19:17;11.40;70.50
35796;DHT22;21916;52.428;13.302;2023-06-04T01:21:49;11.40;71.60
35796;DHT22;21916;52.428;13.302;2023-06-04T01:24:20;11.40;72.00
35796;DHT22;21916;52.428;13.302;2023-06-04T01:26:48;11.30;72.60
35796;DHT22;21916;52.428;13.302;2023-06-04T01:29:14;11.30;72.60
35796;DHT22;21916;52.428;13.302;2023-06-04T01:31:39;11.30;72.70
35796;DHT22;21916;52.428;13.302;2023-06-04T01:34:07;11.20;73.10
35796;DHT22;21916;52.428;13.302;2023-06-04T01:36:35;11.10;73.90
35796;DHT22;21916;52.428;13.302;2023-06-04T01:39:01;11.00;74.10
35796;DHT22;21916;52.428;13.302;2023-06-04T01:41:28;11.10;74.70
35796;DHT22;21916;52.428;13.302;2023-06-04T01:43:55;11.10;75.20
35796;DHT22;21916;52.428;13.302;2023-06-04T01:46:22;11.10;75.40
35796;DHT22;21916;52.428;13.302;2023-06-04T01:48:49;11.10;75.80
35796;DHT22;21916;52.428;13.302;2023-06-04T01:51:16;11.20;76.20
35796;DHT22;21916;52.428;13.302;2023-06-04T01:53:42;11.20;76.70
35796;DHT22;21916;52.428;13.302;2023-06-04T01:56:08;11.10;77.10
35796;DHT22;21916;52.428;13.302;2023-06-04T01:58:35;10.90;77.00
35796;DHT22;21916;52.428;13.302;2023-06-04T02:01:01;10.80;78.00
35796;DHT22;21916;52.428;13.302;2023-06-04T02:03:28;10.80;78.60
35796;DHT22;21916;52.428;13.302;2023-06-04T02:06:01;10.80;78.60
35796;DHT22;21916;52.428;13.302;2023-06-04T02:08:29;10.60;79.50
35796;DHT22;21916;52.428;13.302;2023-06-04T02:10:56;10.70;80.60
35796;DHT22;21916;52.428;13.302;2023-06-04T02:13:22;10.80;81.90
35796;DHT22;21916;52.428;13.302;2023-06-04T02:15:48;10.70;81.80
35796;DHT22;21916;52.428;13.302;2023-06-04T02:18:19;10.70;82.40
35796;DHT22;21916;52.428;13.302;2023-06-04T02:20:48;10.60;82.80
35796;DHT22;21916;52.428;13.302;2023-06-04T02:23:16;10.60;83.70
35796;DHT22;21916;52.428;13.302;2023-06-04T02:25:44;10.50;84.10
35796;DHT22;21916;52.428;13.302;2023-06-04T02:28:11;10.60;84.60
35796;DHT22;21916;52.428;13.302;2023-06-04T02:30:37;10.70;85.10
35796;DHT22;21916;52.428;13.302;2023-06-04T02:33:03;10.80;85.00
35796;DHT22;21916;52.428;13.302;2023-06-04T02:35:31;10.90;84.80
35796;DHT22;21916;52.428;13.302;2023-06-04T02:37:58;10.90;84.90
35796;DHT22;21916;52.428;13.302;2023-06-04T02:40:29;10.80;85.30
35796;DHT22;21916;52.428;13.302;2023-06-04T02:42:55;10.70;85.70
35796;DHT22;21916;52.428;13.302;2023-06-04T02:45:22;10.70;86.00
35796;DHT22;21916;52.428;13.302;2023-06-04T02:47:49;10.70;86.90
35796;DHT22;21916;52.428;13.302;2023-06-04T02:50:15;10.50;87.00
35796;DHT22;21916;52.428;13.302;2023-06-04T02:52:41;10.60;88.60
35796;DHT22;21916;52.428;13.302;2023-06-04T02:55:08;10.50;89.00
35796;DHT22;21916;52.428;13.302;2023-06-04T02:57:35;10.60;89.60
35796;DHT22;21916;52.428;13.302;2023-06-04T03:00:03;10.60;90.00
35796;DHT22;21916;52.428;13.302;2023-06-04T03:02:42;10.60;90.00
35796;DHT22;21916;52.428;13.302;2023-06-04T03:05:11;10.60;90.10
35796;DHT22;21916;52.428;13.302;2023-06-04T03:07:41;10.60;90.30
35796;DHT22;21916;52.428;13.302;2023-06-04T03:10:10;10.50;90.70
35796;DHT22;21916;52.428;13.302;2023-06-04T03:12:38;10.40;91.10
35796;DHT22;21916;52.428;13.302;2023-06-04T03:15:04;10.30;91.50
35796;DHT22;21916;52.428;13.302;2023-06-04T03:17:31;10.30;92.00
35796;DHT22;21916;52.428;13.302;2023-06-04T03:19:58;10.40;92.10
35796;DHT22;21916;52.428;13.302;2023-06-04T03:22:24;10.40;92.00
35796;DHT22;21916;52.428;13.302;2023-06-04T03:24:51;10.40;92.20
35796;DHT22;21916;52.428;13.302;2023-06-04T03:27:18;10.40;92.70
35796;DHT22;21916;52.428;13.302;2023-06-04T03:29:47;10.40;92.50
35796;DHT22;21916;52.428;13.302;2023-06-04T03:32:15;10.30;92.70
35796;DHT22;21916;52.428;13.302;2023-06-04T03:34:42;10.40;93.10
35796;DHT22;21916;52.428;13.302;2023-06-04T03:37:08;10.40;93.30
35796;DHT22;21916;52.428;13.302;2023-06-04T03:39:36;10.40;93.40
35796;DHT22;21916;52.428;13.302;2023-06-04T03:42:04;10.40;93.80
35796;DHT22;21916;52.428;13.302;2023-06-04T03:44:31;10.40;94.20
35796;DHT22;21916;52.428;13.302;2023-06-04T03:46:58;10.40;94.30
35796;DHT22;21916;52.428;13.302;2023-06-04T03:49:24;10.50;94.70
35796;DHT22;21916;52.428;13.302;2023-06-04T03:51:51;10.50;94.90
35796;DHT22;21916;52.428;13.302;2023-06-04T03:54:18;10.60;95.30
35796;DHT22;21916;52.428;13.302;2023-06-04T03:56:46;10.60;95.80
35796;DHT22;21916;52.428;13.302;2023-06-04T03:59:13;10.70;96.20
35796;DHT22;21916;52.428;13.302;2023-06-04T04:01:41;10.70;96.30
35796;DHT22;21916;52.428;13.302;2023-06-04T04:04:07;10.80;96.30
35796;DHT22;21916;52.428;13.302;2023-06-04T04:06:33;10.90;96.20
35796;DHT22;21916;52.428;13.302;2023-06-04T04:09:00;10.90;96.00
35796;DHT22;21916;52.428;13.302;2023-06-04T04:11:26;11.10;95.80
35796;DHT22;21916;52.428;13.302;2023-06-04T04:13:52;11.20;95.60
35796;DHT22;21916;52.428;13.302;2023-06-04T04:16:21;11.30;95.70
35796;DHT22;21916;52.428;13.302;2023-06-04T04:18:47;11.30;95.50
35796;DHT22;21916;52.428;13.302;2023-06-04T04:21:13;11.40;95.20
35796;DHT22;21916;52.428;13.302;2023-06-04T04:23:40;11.50;95.10
35796;DHT22;21916;52.428;13.302;2023-06-04T04:26:08;11.60;94.70
35796;DHT22;21916;52.428;13.302;2023-06-04T04:28:36;11.60;94.70
35796;DHT22;21916;52.428;13.302;2023-06-04T04:31:04;11.70;94.70
35796;DHT22;21916;52.428;13.302;2023-06-04T04:33:36;11.80;94.40
35796;DHT22;21916;52.428;13.302;2023-06-04T04:36:08;11.80;94.10
35796;DHT22;21916;52.428;13.302;2023-06-04T04:38:40;12.00;94.10
35796;DHT22;21916;52.428;13.302;2023-06-04T04:41:06;12.00;93.80
35796;DHT22;21916;52.428;13.302;2023-06-04T04:43:36;12.20;93.80
35796;DHT22;21916;52.428;13.302;2023-06-04T04:46:26;12.30;93.50
35796;DHT22;21916;52.428;13.302;2023-06-04T04:48:54;12.50;93.00
35796;DHT22;21916;52.428;13.302;2023-06-04T04:51:21;12.60;92.80
35796;DHT22;21916;52.428;13.302;2023-06-04T04:53:48;12.70;92.50
35796;DHT22;21916;52.428;13.302;2023-06-04T04:56:15;12.80;92.10
35796;DHT22;21916;52.428;13.302;2023-06-04T04:58:48;13.00;91.90
35796;DHT22;21916;52.428;13.302;2023-06-04T05:01:14;13.20;91.70
35796;DHT22;21916;52.428;13.302;2023-06-04T05:03:42;13.30;91.40
35796;DHT22;21916;52.428;13.302;2023-06-04T05:06:11;13.40;91.20
35796;DHT22;21916;52.428;13.302;2023-06-04T05:08:37;13.50;90.90
35796;DHT22;21916;52.428;13.302;2023-06-04T05:11:03;13.50;90.80
35796;DHT22;21916;52.428;13.302;2023-06-04T05:13:29;13.70;90.50
35796;DHT22;21916;52.428;13.302;2023-06-04T05:16:02;13.80;90.40
35796;DHT22;21916;52.428;13.302;2023-06-04T05:18:33;14.00;89.00
35796;DHT22;21916;52.428;13.302;2023-06-04T05:21:02;14.10;88.70
35796;DHT22;21916;52.428;13.302;2023-06-04T05:23:35;14.20;88.70
35796;DHT22;21916;52.428;13.302;2023-06-04T05:26:03;14.20;89.30
35796;DHT22;21916;52.428;13.302;2023-06-04T05:28:32;14.20;88.30
35796;DHT22;21916;52.428;13.302;2023-06-04T05:31:00;14.40;87.40
35796;DHT22;21916;52.428;13.302;2023-06-04T05:33:32;14.40;87.00
35796;DHT22;21916;52.428;13.302;2023-06-04T05:36:04;14.50;86.80
35796;DHT22;21916;52.428;13.302;2023-06-04T05:38:37;14.50;86.90
35796;DHT22;21916;52.428;13.302;2023-06-04T05:41:07;14.70;85.80
35796;DHT22;21916;52.428;13.302;2023-06-04T05:43:36;14.90;84.70
35796;DHT22;21916;52.428;13.302;2023-06-04T05:46:03;15.00;84.20
35796;DHT22;21916;52.428;13.302;2023-06-04T05:48:31;15.00;84.10
35796;DHT22;21916;52.428;13.302;2023-06-04T05:50:57;15.20;84.10
35796;DHT22;21916;52.428;13.302;2023-06-04T05:53:23;15.10;82.60
35796;DHT22;21916;52.428;13.302;2023-06-04T05:55:52;15.30;81.50
35796;DHT22;21916;52.428;13.302;2023-06-04T05:58:18;15.40;80.90
35796;DHT22;21916;52.428;13.302;2023-06-04T06:00:44;15.40;79.30
35796;DHT22;21916;52.428;13.302;2023-06-04T06:03:10;15.40;80.20
35796;DHT22;21916;52.428;13.302;2023-06-04T06:05:43;15.60;78.60
35796;DHT22;21916;52.428;13.302;2023-06-04T06:08:09;15.70;78.80
35796;DHT22;21916;52.428;13.302;2023-06-04T06:10:38;15.70;77.70
35796;DHT22;21916;52.428;13.302;2023-06-04T06:13:03;15.80;78.50
35796;DHT22;21916;52.428;13.302;2023-06-04T06:15:34;15.90;78.00
35796;DHT22;21916;52.428;13.302;2023-06-04T06:18:00;16.00;77.10
35796;DHT22;21916;52.428;13.302;2023-06-04T06:20:27;16.10;77.10
35796;DHT22;21916;52.428;13.302;2023-06-04T06:22:55;16.20;77.30
35796;DHT22;21916;52.428;13.302;2023-06-04T06:25:22;16.30;77.10
35796;DHT22;21916;52.428;13.302;2023-06-04T06:27:55;16.50;75.70
35796;DHT22;21916;52.428;13.302;2023-06-04T06:30:22;16.60;74.70
35796;DHT22;21916;52.428;13.302;2023-06-04T06:32:48;16.70;74.80
35796;DHT22;21916;52.428;13.302;2023-06-04T06:35:17;16.80;73.30
35796;DHT22;21916;52.428;13.302;2023-06-04T06:37:43;16.90;71.70
35796;DHT22;21916;52.428;13.302;2023-06-04T06:40:10;16.80;71.60
35796;DHT22;21916;52.428;13.302;2023-06-04T06:42:36;16.90;72.30
35796;DHT22;21916;52.428;13.302;2023-06-04T06:45:02;16.80;70.40
35796;DHT22;21916;52.428;13.302;2023-06-04T06:47:28;17.00;70.90
35796;DHT22;21916;52.428;13.302;2023-06-04T06:49:54;16.90;69.40
35796;DHT22;21916;52.428;13.302;2023-06-04T06:52:20;17.10;68.60
35796;DHT22;21916;52.428;13.302;2023-06-04T06:54:46;17.10;68.20
35796;DHT22;21916;52.428;13.302;2023-06-04T06:57:13;17.20;69.30
35796;DHT22;21916;52.428;13.302;2023-06-04T06:59:39;17.40;69.10
35796;DHT22;21916;52.428;13.302;2023-06-04T07:02:05;17.50;69.60
35796;DHT22;21916;52.428;13.302;2023-06-04T07:04:32;17.60;68.00
35796;DHT22;21916;52.428;13.302;2023-06-04T07:07:00;17.70;68.40
35796;DHT22;21916;52.428;13.302;2023-06-04T07:09:26;17.60;68.50
35796;DHT22;21916;52.428;13.302;2023-06-04T07:11:55;17.70;65.60
35796;DHT22;21916;52.428;13.302;2023-06-04T07:14:22;17.70;65.00
35796;DHT22;21916;52.428;13.302;2023-06-04T07:16:48;17.70;63.00
35796;DHT22;21916;52.428;13.302;2023-06-04T07:19:13;17.80;64.50
35796;DHT22;21916;52.428;13.302;2023-06-04T07:21:39;18.00;64.80
35796;DHT22;21916;52.428;13.302;2023-06-04T07:24:06;18.00;63.80
35796;DHT22;21916;52.428;13.302;2023-06-04T07:26:32;18.10;62.90
35796;DHT22;21916;52.428;13.302;2023-06-04T07:28:58;18.10;62.20
35796;DHT22;21916;52.428;13.302;2023-06-04T07:31:24;18.20;62.70
35796;DHT22;21916;52.428;13.302;2023-06-04T07:33:50;18.30;62.90
35796;DHT22;21916;52.428;13.302;2023-06-04T07:36:16;18.50;62.20
35796;DHT22;21916;52.428;13.302;2023-06-04T07:38:42;18.50;61.40
35796;DHT22;21916;52.428;13.302;2023-06-04T07:41:09;18.40;61.80
35796;DHT22;21916;52.428;13.302;2023-06-04T07:43:36;18.50;63.10
35796;DHT22;21916;52.428;13.302;2023-06-04T07:46:04;18.70;61.50
35796;DHT22;21916;52.428;13.302;2023-06-04T07:48:30;18.90;61.50
35796;DHT22;21916;52.428;13.302;2023-06-04T07:51:00;19.00;59.30
35796;DHT22;21916;52.428;13.302;2023-06-04T07:53:28;18.90;59.70
35796;DHT22;21916;52.428;13.302;2023-06-04T07:55:56;18.90;59.70
35796;DHT22;21916;52.428;13.302;2023-06-04T07:58:23;19.10;60.40
35796;DHT22;21916;52.428;13.302;2023-06-04T08:00:49;19.20;58.70
35796;DHT22;21916;52.428;13.302;2023-06-04T08:03:19;19.20;58.90
35796;DHT22;21916;52.428;13.302;2023-06-04T08:05:46;19.40;59.60
35796;DHT22;21916;52.428;13.302;2023-06-04T08:08:13;19.60;60.50
35796;DHT22;21916;52.428;13.302;2023-06-04T08:10:42;19.80;59.30
35796;DHT22;21916;52.428;13.302;2023-06-04T08:13:09;20.00;58.20
35796;DHT22;21916;52.428;13.302;2023-06-04T08:15:36;20.00;58.80
35796;DHT22;21916;52.428;13.302;2023-06-04T08:18:21;20.00;57.20
35796;DHT22;21916;52.428;13.302;2023-06-04T08:21:11;20.10;56.00
35796;DHT22;21916;52.428;13.302;2023-06-04T08:23:55;20.10;58.20
35796;DHT22;21916;52.428;13.302;2023-06-04T08:26:43;20.20;56.80
35796;DHT22;21916;52.428;13.302;2023-06-04T08:29:14;20.30;55.50
35796;DHT22;21916;52.428;13.302;2023-06-04T08:31:49;20.30;55.90
35796;DHT22;21916;52.428;13.302;2023-06-04T08:34:25;20.40;57.10
35796;DHT22;21916;52.428;13.302;2023-06-04T08:36:51;20.50;56.60
35796;DHT22;21916;52.428;13.302;2023-06-04T08:39:17;20.50;54.10
35796;DHT22;21916;52.428;13.302;2023-06-04T08:41:54;19.90;54.60
35796;DHT22;21916;52.428;13.302;2023-06-04T08:44:30;19.80;55.30
35796;DHT22;21916;52.428;13.302;2023-06-04T08:47:03;20.00;57.70
35796;DHT22;21916;52.428;13.302;2023-06-04T08:49:34;20.40;56.70
35796;DHT22;21916;52.428;13.302;2023-06-04T08:52:04;20.70;56.30
35796;DHT22;21916;52.428;13.302;2023-06-04T08:54:32;21.00;56.20
35796;DHT22;21916;52.428;13.302;2023-06-04T08:57:00;21.20;54.50
35796;DHT22;21916;52.428;13.302;2023-06-04T08:59:27;21.30;54.70
35796;DHT22;21916;52.428;13.302;2023-06-04T09:01:54;21.40;53.90
35796;DHT22;21916;52.428;13.302;2023-06-04T09:04:21;21.10;53.10
35796;DHT22;21916;52.428;13.302;2023-06-04T09:06:49;21.00;54.20
35796;DHT22;21916;52.428;13.302;2023-06-04T09:09:16;21.10;53.70
35796;DHT22;21916;52.428;13.302;2023-06-04T09:11:51;21.10;52.40
35796;DHT22;21916;52.428;13.302;2023-06-04T09:14:18;21.20;53.40
35796;DHT22;21916;52.428;13.302;2023-06-04T09:16:46;21.20;54.40
35796;DHT22;21916;52.428;13.302;2023-06-04T09:19:13;21.30;53.50
35796;DHT22;21916;52.428;13.302;2023-06-04T09:21:58;21.40;53.10
35796;DHT22;21916;52.428;13.302;2023-06-04T09:24:40;21.60;53.80
35796;DHT22;21916;52.428;13.302;2023-06-04T09:27:14;21.80;52.60
35796;DHT22;21916;52.428;13.302;2023-06-04T09:29:50;21.90;52.20
35796;DHT22;21916;52.428;13.302;2023-06-04T09:32:24;22.00;51.00
35796;DHT22;21916;52.428;13.302;2023-06-04T09:34:50;22.00;50.90
35796;DHT22;21916;52.428;13.302;2023-06-04T09:37:20;21.70;51.30
35796;DHT22;21916;52.428;13.302;2023-06-04T09:39:55;21.70;52.00
35796;DHT22;21916;52.428;13.302;2023-06-04T09:42:22;21.50;51.00
35796;DHT22;21916;52.428;13.302;2023-06-04T09:44:49;21.30;50.80
35796;DHT22;21916;52.428;13.302;2023-06-04T09:47:16;21.50;51.90
35796;DHT22;21916;52.428;13.302;2023-06-04T09:49:43;21.80;51.10
35796;DHT22;21916;52.428;13.302;2023-06-04T09:52:11;21.70;50.90
35796;DHT22;21916;52.428;13.302;2023-06-04T09:54:39;22.00;52.20
35796;DHT22;21916;52.428;13.302;2023-06-04T09:57:17;22.10;51.50
35796;DHT22;21916;52.428;13.302;2023-06-04T09:59:46;22.10;50.40
35796;DHT22;21916;52.428;13.302;2023-06-04T10:02:13;21.90;50.20
35796;DHT22;21916;52.428;13.302;2023-06-04T10:04:42;21.80;50.40
35796;DHT22;21916;52.428;13.302;2023-06-04T10:07:11;22.10;50.10
35796;DHT22;21916;52.428;13.302;2023-06-04T10:09:39;22.20;52.10
35796;DHT22;21916;52.428;13.302;2023-06-04T10:12:13;22.60;51.10
35796;DHT22;21916;52.428;13.302;2023-06-04T10:14:56;23.00;50.30
35796;DHT22;21916;52.428;13.302;2023-06-04T10:17:25;23.30;50.30
35796;DHT22;21916;52.428;13.302;2023-06-04T10:19:54;23.60;49.40
35796;DHT22;21916;52.428;13.302;2023-06-04T10:22:21;23.80;49.60
35796;DHT22;21916;52.428;13.302;2023-06-04T10:24:47;23.90;47.90
35796;DHT22;21916;52.428;13.302;2023-06-04T10:27:15;23.90;48.10
35796;DHT22;21916;52.428;13.302;2023-06-04T10:29:43;24.10;48.80
35796;DHT22;21916;52.428;13.302;2023-06-04T10:32:09;24.50;49.20
35796;DHT22;21916;52.428;13.302;2023-06-04T10:34:36;24.40;47.60
35796;DHT22;21916;52.428;13.302;2023-06-04T10:37:02;24.60;48.80
35796;DHT22;21916;52.428;13.302;2023-06-04T10:39:30;25.10;47.60
35796;DHT22;21916;52.428;13.302;2023-06-04T10:42:03;25.90;47.60
35796;DHT22;21916;52.428;13.302;2023-06-04T10:44:31;26.80;47.60
35796;DHT22;21916;52.428;13.302;2023-06-04T10:46:58;27.80;46.70
35796;DHT22;21916;52.428;13.302;2023-06-04T10:49:31;28.70;45.50
35796;DHT22;21916;52.428;13.302;2023-06-04T10:51:57;29.20;44.50
35796;DHT22;21916;52.428;13.302;2023-06-04T10:54:29;29.60;44.20
35796;DHT22;21916;52.428;13.302;2023-06-04T10:56:55;30.30;44.30
35796;DHT22;21916;52.428;13.302;2023-06-04T10:59:21;30.20;43.10
35796;DHT22;21916;52.428;13.302;2023-06-04T11:01:48;30.70;42.60
35796;DHT22;21916;52.428;13.302;2023-06-04T11:04:22;31.60;41.20
35796;DHT22;21916;52.428;13.302;2023-06-04T11:07:00;32.40;41.40
35796;DHT22;21916;52.428;13.302;2023-06-04T11:10:03;33.20;40.90
35796;DHT22;21916;52.428;13.302;2023-06-04T11:12:40;33.60;40.10
35796;DHT22;21916;52.428;13.302;2023-06-04T11:15:06;34.40;39.40
35796;DHT22;21916;52.428;13.302;2023-06-04T11:17:32;34.80;38.80
35796;DHT22;21916;52.428;13.302;2023-06-04T11:19:58;34.50;38.20
35796;DHT22;21916;52.428;13.302;2023-06-04T11:22:26;34.60;37.30
35796;DHT22;21916;52.428;13.302;2023-06-04T11:24:58;33.90;38.00
35796;DHT22;21916;52.428;13.302;2023-06-04T11:27:26;33.60;37.70
35796;DHT22;21916;52.428;13.302;2023-06-04T11:29:52;33.50;37.40
35796;DHT22;21916;52.428;13.302;2023-06-04T11:32:24;33.70;38.60
35796;DHT22;21916;52.428;13.302;2023-06-04T11:34:50;35.00;38.80
35796;DHT22;21916;52.428;13.302;2023-06-04T11:37:16;35.50;37.90
35796;DHT22;21916;52.428;13.302;2023-06-04T11:39:42;36.40;37.80
35796;DHT22;21916;52.428;13.302;2023-06-04T11:42:10;37.10;36.90
35796;DHT22;21916;52.428;13.302;2023-06-04T11:44:36;36.40;35.30
35796;DHT22;21916;52.428;13.302;2023-06-04T11:47:08;32.30;35.50
35796;DHT22;21916;52.428;13.302;2023-06-04T11:49:35;31.90;37.10
35796;DHT22;21916;52.428;13.302;2023-06-04T11:52:02;32.50;36.60
35796;DHT22;21916;52.428;13.302;2023-06-04T11:54:28;32.70;35.70
35796;DHT22;21916;52.428;13.302;2023-06-04T11:56:56;32.60;36.10
35796;DHT22;21916;52.428;13.302;2023-06-04T11:59:23;32.60;36.30
35796;DHT22;21916;52.428;13.302;2023-06-04T12:01:49;33.20;36.50
35796;DHT22;21916;52.428;13.302;2023-06-04T12:04:19;32.80;35.70
35796;DHT22;21916;52.428;13.302;2023-06-04T12:06:56;32.10;36.00
35796;DHT22;21916;52.428;13.302;2023-06-04T12:09:24;31.40;36.40
35796;DHT22;21916;52.428;13.302;2023-06-04T12:12:07;31.20;36.90
35796;DHT22;21916;52.428;13.302;2023-06-04T12:14:34;31.80;37.00
35796;DHT22;21916;52.428;13.302;2023-06-04T12:17:07;32.70;36.90
35796;DHT22;21916;52.428;13.302;2023-06-04T12:19:48;33.30;36.40
35796;DHT22;21916;52.428;13.302;2023-06-04T12:22:14;33.30;36.00
35796;DHT22;21916;52.428;13.302;2023-06-04T12:24:51;33.30;36.20
35796;DHT22;21916;52.428;13.302;2023-06-04T12:27:24;33.70;36.20
35796;DHT22;21916;52.428;13.302;2023-06-04T12:29:59;33.90;36.70
35796;DHT22;21916;52.428;13.302;2023-06-04T12:32:26;35.00;37.20
35796;DHT22;21916;52.428;13.302;2023-06-04T12:34:52;36.30;36.40
35796;DHT22;21916;52.428;13.302;2023-06-04T12:37:18;37.40;35.80
35796;DHT22;21916;52.428;13.302;2023-06-04T12:39:44;38.90;36.20
35796;DHT22;21916;52.428;13.302;2023-06-04T12:42:10;39.30;35.20
35796;DHT22;21916;52.428;13.302;2023-06-04T12:44:37;39.30;35.80
35796;DHT22;21916;52.428;13.302;2023-06-04T12:47:04;38.30;34.00
35796;DHT22;21916;52.428;13.302;2023-06-04T12:49:31;39.10;34.30
35796;DHT22;21916;52.428;13.302;2023-06-04T12:51:57;38.80;34.10
35796;DHT22;21916;52.428;13.302;2023-06-04T12:54:23;38.90;34.60
35796;DHT22;21916;52.428;13.302;2023-06-04T12:56:49;39.60;33.90
35796;DHT22;21916;52.428;13.302;2023-06-04T12:59:16;38.90;34.00
35796;DHT22;21916;52.428;13.302;2023-06-04T13:01:43;39.00;33.90
35796;DHT22;21916;52.428;13.302;2023-06-04T13:04:09;39.70;34.30
35796;DHT22;21916;52.428;13.302;2023-06-04T13:06:35;40.40;33.90
35796;DHT22;21916;52.428;13.302;2023-06-04T13:09:01;40.50;33.00
35796;DHT22;21916;52.428;13.302;2023-06-04T13:11:29;39.10;33.00
35796;DHT22;21916;52.428;13.302;2023-06-04T13:13:55;39.40;33.80
35796;DHT22;21916;52.428;13.302;2023-06-04T13:16:20;39.70;33.30
35796;DHT22;21916;52.428;13.302;2023-06-04T13:18:46;39.00;32.60
35796;DHT22;21916;52.428;13.302;2023-06-04T13:21:12;38.60;32.40
35796;DHT22;21916;52.428;13.302;2023-06-04T13:23:40;36.80;32.90
35796;DHT22;21916;52.428;13.302;2023-06-04T13:26:06;37.50;33.20
35796;DHT22;21916;52.428;13.302;2023-06-04T13:28:32;35.20;32.90
35796;DHT22;21916;52.428;13.302;2023-06-04T13:30:58;35.70;33.70
35796;DHT22;21916;52.428;13.302;2023-06-04T13:33:24;35.50;33.90
35796;DHT22;21916;52.428;13.302;2023-06-04T13:35:51;35.00;33.80
35796;DHT22;21916;52.428;13.302;2023-06-04T13:38:17;35.20;34.60
35796;DHT22;21916;52.428;13.302;2023-06-04T13:40:44;36.30;34.90
35796;DHT22;21916;52.428;13.302;2023-06-04T13:43:10;37.40;34.20
35796;DHT22;21916;52.428;13.302;2023-06-04T13:45:36;38.90;34.20
35796;DHT22;21916;52.428;13.302;2023-06-04T13:48:02;39.40;34.10
35796;DHT22;21916;52.428;13.302;2023-06-04T13:50:33;39.50;33.70
35796;DHT22;21916;52.428;13.302;2023-06-04T13:52:59;39.50;33.40
35796;DHT22;21916;52.428;13.302;2023-06-04T13:55:25;40.20;33.00
35796;DHT22;21916;52.428;13.302;2023-06-04T13:57:51;38.90;33.00
35796;DHT22;21916;52.428;13.302;2023-06-04T14:00:17;38.60;33.50
35796;DHT22;21916;52.428;13.302;2023-06-04T14:02:43;39.10;33.40
35796;DHT22;21916;52.428;13.302;2023-06-04T14:05:09;39.30;33.00
35796;DHT22;21916;52.428;13.302;2023-06-04T14:07:35;38.30;32.90
35796;DHT22;21916;52.428;13.302;2023-06-04T14:10:01;38.40;33.70
35796;DHT22;21916;52.428;13.302;2023-06-04T14:12:27;38.80;32.90
35796;DHT22;21916;52.428;13.302;2023-06-04T14:14:53;38.70;32.90
35796;DHT22;21916;52.428;13.302;2023-06-04T14:17:19;38.90;32.80
35796;DHT22;21916;52.428;13.302;2023-06-04T14:19:45;38.50;32.50
35796;DHT22;21916;52.428;13.302;2023-06-04T14:22:11;37.70;33.30
35796;DHT22;21916;52.428;13.302;2023-06-04T14:24:40;38.10;33.30
35796;DHT22;21916;52.428;13.302;2023-06-04T14:27:06;37.60;32.60
35796;DHT22;21916;52.428;13.302;2023-06-04T14:29:32;36.70;33.90
35796;DHT22;21916;52.428;13.302;2023-06-04T14:32:00;37.90;33.50
35796;DHT22;21916;52.428;13.302;2023-06-04T14:34:26;38.60;33.80
35796;DHT22;21916;52.428;13.302;2023-06-04T14:36:52;39.40;33.70
35796;DHT22;21916;52.428;13.302;2023-06-04T14:39:18;39.90;33.00
35796;DHT22;21916;52.428;13.302;2023-06-04T14:41:45;40.10;32.60
35796;DHT22;21916;52.428;13.302;2023-06-04T14:44:11;40.50;32.80
35796;DHT22;21916;52.428;13.302;2023-06-04T14:46:37;40.50;32.60
35796;DHT22;21916;52.428;13.302;2023-06-04T14:49:05;40.40;32.80
35796;DHT22;21916;52.428;13.302;2023-06-04T14:51:31;40.40;32.70
35796;DHT22;21916;52.428;13.302;2023-06-04T14:53:57;40.50;32.30
35796;DHT22;21916;52.428;13.302;2023-06-04T14:56:23;39.70;32.10
35796;DHT22;21916;52.428;13.302;2023-06-04T14:58:49;39.30;32.10
35796;DHT22;21916;52.428;13.302;2023-06-04T15:01:15;39.50;32.30
35796;DHT22;21916;52.428;13.302;2023-06-04T15:03:43;40.30;32.50
35796;DHT22;21916;52.428;13.302;2023-06-04T15:06:09;39.20;32.30
35796;DHT22;21916;52.428;13.302;2023-06-04T15:08:35;39.00;32.30
35796;DHT22;21916;52.428;13.302;2023-06-04T15:11:01;39.40;32.60
35796;DHT22;21916;52.428;13.302;2023-06-04T15:13:27;39.90;33.00
35796;DHT22;21916;52.428;13.302;2023-06-04T15:15:53;39.50;32.50
35796;DHT22;21916;52.428;13.302;2023-06-04T15:18:21;39.50;33.40
35796;DHT22;21916;52.428;13.302;2023-06-04T15:20:47;39.60;33.00
35796;DHT22;21916;52.428;13.302;2023-06-04T15:23:13;39.40;32.80
35796;DHT22;21916;52.428;13.302;2023-06-04T15:25:39;39.60;32.70